sensor_id;sensor_type;location;lat;lon;timestamp;pressure;altitude;pressure_sealevel;temperature;humidity
35519;BME280;21627;48.216;16.482;2023-04-27T00:00:17;100087.97;;;6.06;100.00
35519;BME280;21627;48.216;16.482;2023-04-27T00:02:44;100085.44;;;6.08;100.00
35519;BME280;21627;48.216;16.482;2023-04-27T00:05:12;100070.69;;;5.99;100.00
35519;BME280;21627;48.216;16.482;2023-04-27T00:07:40;100075.06;;;6.03;100.00
35519;BME280;21627;48.216;16.482;2023-04-27T00:10:08;100077.59;;;6.02;100.00
35519;BME280;21627;48.216;16.482;2023-04-27T00:12:35;100079.44;;;6.07;100.00
35519;BME280;21627;48.216;16.482;2023-04-27T00:15:03;100081.19;;;6.09;100.00
35519;BME280;21627;48.216;16.482;2023-04-27T00:17:30;100076.78;;;6.04;100.00
35519;BME280;21627;48.216;16.482;2023-04-27T00:20:00;100075.13;;;6.06;100.00
35519;BME280;21627;48.216;16.482;2023-04-27T00:22:28;100070.78;;;6.02;100.00
35519;BME280;21627;48.216;16.482;2023-04-27T00:24:55;100078.53;;;6.05;100.00
35519;BME280;21627;48.216;16.482;2023-04-27T00:27:22;100075.13;;;6.05;100.00
35519;BME280;21627;48.216;16.482;2023-04-27T00:29:49;100075.13;;;6.06;100.00
35519;BME280;21627;48.216;16.482;2023-04-27T00:32:16;100076.78;;;6.04;100.00
35519;BME280;21627;48.216;16.482;2023-04-27T00:34:43;100079.34;;;6.04;100.00
35519;BME280;21627;48.216;16.482;2023-04-27T00:37:10;100075.13;;;6.06;100.00
35519;BME280;21627;48.216;16.482;2023-04-27T00:39:37;100071.66;;;6.04;100.00
35519;BME280;21627;48.216;16.482;2023-04-27T00:42:04;100075.19;;;6.10;100.00
35519;BME280;21627;48.216;16.482;2023-04-27T00:44:37;100074.41;;;6.12;100.00
35519;BME280;21627;48.216;16.482;2023-04-27T00:47:06;100059.78;;;6.08;100.00
35519;BME280;21627;48.216;16.482;2023-04-27T00:49:33;100066.69;;;6.12;100.00
35519;BME280;21627;48.216;16.482;2023-04-27T00:52:00;100072.69;;;6.11;100.00
35519;BME280;21627;48.216;16.482;2023-04-27T00:54:27;100072.69;;;6.11;100.00
35519;BME280;21627;48.216;16.482;2023-04-27T00:56:55;100069.31;;;6.14;100.00
35519;BME280;21627;48.216;16.482;2023-04-27T00:59:22;100061.47;;;6.07;100.00
35519;BME280;21627;48.216;16.482;2023-04-27T01:01:49;100068.47;;;6.15;100.00
35519;BME280;21627;48.216;16.482;2023-04-27T01:04:16;100070.22;;;6.16;100.00
35519;BME280;21627;48.216;16.482;2023-04-27T01:06:44;100059.84;;;6.11;100.00
35519;BME280;21627;48.216;16.482;2023-04-27T01:09:12;100062.47;;;6.14;100.00
35519;BME280;21627;48.216;16.482;2023-04-27T01:11:40;100070.16;;;6.14;100.00
35519;BME280;21627;48.216;16.482;2023-04-27T01:14:07;100070.16;;;6.13;100.00
35519;BME280;21627;48.216;16.482;2023-04-27T01:16:34;100059.56;;;5.99;100.00
35519;BME280;21627;48.216;16.482;2023-04-27T01:19:02;100078.59;;;6.09;100.00
35519;BME280;21627;48.216;16.482;2023-04-27T01:21:30;100066.47;;;6.01;100.00
35519;BME280;21627;48.216;16.482;2023-04-27T01:23:57;100063.88;;;6.00;100.00
35519;BME280;21627;48.216;16.482;2023-04-27T01:26:24;100072.44;;;6.00;100.00
35519;BME280;21627;48.216;16.482;2023-04-27T01:28:51;100068.84;;;5.94;100.00
35519;BME280;21627;48.216;16.482;2023-04-27T01:31:18;100078.31;;;5.95;100.00
35519;BME280;21627;48.216;16.482;2023-04-27T01:33:45;100073.09;;;5.93;100.00
35519;BME280;21627;48.216;16.482;2023-04-27T01:36:12;100065.16;;;5.84;100.00
35519;BME280;21627;48.216;16.482;2023-04-27T01:38:39;100070.34;;;5.85;100.00
35519;BME280;21627;48.216;16.482;2023-04-27T01:41:06;100070.28;;;5.82;100.00
35519;BME280;21627;48.216;16.482;2023-04-27T01:43:35;100083.19;;;5.87;100.00
35519;BME280;21627;48.216;16.482;2023-04-27T01:46:11;100077.06;;;5.80;100.00
35519;BME280;21627;48.216;16.482;2023-04-27T01:48:39;100084.69;;;5.79;100.00
35519;BME280;21627;48.216;16.482;2023-04-27T01:51:07;100083.78;;;5.77;100.00
35519;BME280;21627;48.216;16.482;2023-04-27T01:53:34;100082.06;;;5.76;100.00
35519;BME280;21627;48.216;16.482;2023-04-27T01:56:01;100078.56;;;5.72;100.00
35519;BME280;21627;48.216;16.482;2023-04-27T01:58:29;100077.53;;;5.66;100.00
35519;BME280;21627;48.216;16.482;2023-04-27T02:00:56;100088.66;;;5.66;100.00
35519;BME280;21627;48.216;16.482;2023-04-27T02:03:24;100082.59;;;5.62;100.00
35519;BME280;21627;48.216;16.482;2023-04-27T02:05:54;100091.03;;;5.58;100.00
35519;BME280;21627;48.216;16.482;2023-04-27T02:08:21;100079.78;;;5.53;100.00
35519;BME280;21627;48.216;16.482;2023-04-27T02:10:48;100071.00;;;5.43;100.00
35519;BME280;21627;48.216;16.482;2023-04-27T02:13:15;100075.22;;;5.41;100.00
35519;BME280;21627;48.216;16.482;2023-04-27T02:15:42;100084.47;;;5.36;100.00
35519;BME280;21627;48.216;16.482;2023-04-27T02:18:09;100090.31;;;5.31;100.00
35519;BME280;21627;48.216;16.482;2023-04-27T02:20:37;100083.25;;;5.22;100.00
35519;BME280;21627;48.216;16.482;2023-04-27T02:23:04;100092.53;;;5.18;100.00
35519;BME280;21627;48.216;16.482;2023-04-27T02:25:31;100098.31;;;5.11;100.00
35519;BME280;21627;48.216;16.482;2023-04-27T02:27:58;100104.16;;;5.06;100.00
35519;BME280;21627;48.216;16.482;2023-04-27T02:30:26;100097.19;;;5.00;100.00
35519;BME280;21627;48.216;16.482;2023-04-27T02:32:54;100089.34;;;4.94;100.00
35519;BME280;21627;48.216;16.482;2023-04-27T02:35:21;100093.50;;;4.90;100.00
35519;BME280;21627;48.216;16.482;2023-04-27T02:37:48;100087.22;;;4.81;100.00
35519;BME280;21627;48.216;16.482;2023-04-27T02:40:15;100094.00;;;4.78;100.00
35519;BME280;21627;48.216;16.482;2023-04-27T02:42:42;100095.66;;;4.76;100.00
35519;BME280;21627;48.216;16.482;2023-04-27T02:45:10;100077.31;;;4.63;100.00
35519;BME280;21627;48.216;16.482;2023-04-27T02:47:37;100093.63;;;4.65;100.00
35519;BME280;21627;48.216;16.482;2023-04-27T02:50:05;100087.34;;;4.55;100.00
35519;BME280;21627;48.216;16.482;2023-04-27T02:52:32;100090.63;;;4.51;100.00
35519;BME280;21627;48.216;16.482;2023-04-27T02:54:59;100085.34;;;4.45;100.00
35519;BME280;21627;48.216;16.482;2023-04-27T02:57:27;100099.00;;;4.45;100.00
35519;BME280;21627;48.216;16.482;2023-04-27T02:59:54;100092.84;;;4.39;100.00
35519;BME280;21627;48.216;16.482;2023-04-27T03:02:21;100096.03;;;4.31;100.00
35519;BME280;21627;48.216;16.482;2023-04-27T03:04:52;100100.22;;;4.29;100.00
35519;BME280;21627;48.216;16.482;2023-04-27T03:07:21;100095.75;;;4.22;100.00
35519;BME280;21627;48.216;16.482;2023-04-27T03:09:48;100099.84;;;4.17;100.00
35519;BME280;21627;48.216;16.482;2023-04-27T03:12:15;100108.38;;;4.18;100.00
35519;BME280;21627;48.216;16.482;2023-04-27T03:14:42;100103.09;;;4.11;100.00
35519;BME280;21627;48.216;16.482;2023-04-27T03:17:10;100104.81;;;4.12;100.00
35519;BME280;21627;48.216;16.482;2023-04-27T03:19:37;100112.47;;;4.11;100.00
35519;BME280;21627;48.216;16.482;2023-04-27T03:22:04;100110.63;;;4.07;100.00
35519;BME280;21627;48.216;16.482;2023-04-27T03:24:31;100110.44;;;4.01;100.00
35519;BME280;21627;48.216;16.482;2023-04-27T03:27:00;100108.75;;;4.01;100.00
35519;BME280;21627;48.216;16.482;2023-04-27T03:29:28;100112.06;;;3.99;100.00
35519;BME280;21627;48.216;16.482;2023-04-27T03:31:55;100114.53;;;3.96;100.00
35519;BME280;21627;48.216;16.482;2023-04-27T03:34:22;100115.25;;;3.92;100.00
35519;BME280;21627;48.216;16.482;2023-04-27T03:36:49;100114.25;;;3.88;100.00
35519;BME280;21627;48.216;16.482;2023-04-27T03:39:17;100110.59;;;3.80;100.00
35519;BME280;21627;48.216;16.482;2023-04-27T03:41:44;100109.81;;;3.82;100.00
35519;BME280;21627;48.216;16.482;2023-04-27T03:44:11;100113.81;;;3.74;100.00
35519;BME280;21627;48.216;16.482;2023-04-27T03:46:38;100122.44;;;3.78;100.00
35519;BME280;21627;48.216;16.482;2023-04-27T03:49:05;100116.28;;;3.71;100.00
35519;BME280;21627;48.216;16.482;2023-04-27T03:51:32;100132.44;;;3.70;100.00
35519;BME280;21627;48.216;16.482;2023-04-27T03:53:59;100131.41;;;3.65;100.00
35519;BME280;21627;48.216;16.482;2023-04-27T03:56:26;100136.50;;;3.65;100.00
35519;BME280;21627;48.216;16.482;2023-04-27T03:58:53;100129.69;;;3.64;100.00
35519;BME280;21627;48.216;16.482;2023-04-27T04:01:20;100138.03;;;3.60;100.00
35519;BME280;21627;48.216;16.482;2023-04-27T04:03:47;100138.94;;;3.60;100.00
35519;BME280;21627;48.216;16.482;2023-04-27T04:06:16;100142.19;;;3.56;100.00
35519;BME280;21627;48.216;16.482;2023-04-27T04:08:43;100144.66;;;3.53;100.00
35519;BME280;21627;48.216;16.482;2023-04-27T04:11:10;100144.44;;;3.47;100.00
35519;BME280;21627;48.216;16.482;2023-04-27T04:13:38;100150.38;;;3.46;100.00
35519;BME280;21627;48.216;16.482;2023-04-27T04:16:07;100146.97;;;3.47;100.00
35519;BME280;21627;48.216;16.482;2023-04-27T04:18:35;100140.84;;;3.42;100.00
35519;BME280;21627;48.216;16.482;2023-04-27T04:21:03;100138.25;;;3.40;100.00
35519;BME280;21627;48.216;16.482;2023-04-27T04:23:30;100147.22;;;3.53;100.00
35519;BME280;21627;48.216;16.482;2023-04-27T04:25:58;100145.53;;;3.54;100.00
35519;BME280;21627;48.216;16.482;2023-04-27T04:28:25;100151.44;;;3.53;100.00
35519;BME280;21627;48.216;16.482;2023-04-27T04:30:53;100143.81;;;3.54;100.00
35519;BME280;21627;48.216;16.482;2023-04-27T04:33:20;100146.44;;;3.56;100.00
35519;BME280;21627;48.216;16.482;2023-04-27T04:35:47;100151.66;;;3.59;100.00
35519;BME280;21627;48.216;16.482;2023-04-27T04:38:14;100151.81;;;3.63;100.00
35519;BME280;21627;48.216;16.482;2023-04-27T04:40:42;100146.09;;;3.71;100.00
35519;BME280;21627;48.216;16.482;2023-04-27T04:43:12;100143.69;;;3.75;100.00
35519;BME280;21627;48.216;16.482;2023-04-27T04:45:39;100144.94;;;3.86;100.00
35519;BME280;21627;48.216;16.482;2023-04-27T04:48:06;100150.28;;;3.94;100.00
35519;BME280;21627;48.216;16.482;2023-04-27T04:50:34;100139.38;;;4.00;100.00
35519;BME280;21627;48.216;16.482;2023-04-27T04:53:01;100147.56;;;4.15;100.00
35519;BME280;21627;48.216;16.482;2023-04-27T04:55:28;100144.31;;;4.21;100.00
35519;BME280;21627;48.216;16.482;2023-04-27T04:57:56;100137.00;;;4.31;100.00
35519;BME280;21627;48.216;16.482;2023-04-27T05:00:23;100152.00;;;4.48;100.00
35519;BME280;21627;48.216;16.482;2023-04-27T05:02:50;100153.22;;;4.61;100.00
35519;BME280;21627;48.216;16.482;2023-04-27T05:05:17;100150.97;;;4.70;100.00
35519;BME280;21627;48.216;16.482;2023-04-27T05:07:45;100164.31;;;4.88;100.00
35519;BME280;21627;48.216;16.482;2023-04-27T05:10:12;100157.03;;;5.02;100.00
35519;BME280;21627;48.216;16.482;2023-04-27T05:12:39;100158.19;;;5.13;100.00
35519;BME280;21627;48.216;16.482;2023-04-27T05:15:06;100158.53;;;5.26;100.00
35519;BME280;21627;48.216;16.482;2023-04-27T05:17:34;100144.28;;;5.35;100.00
35519;BME280;21627;48.216;16.482;2023-04-27T05:20:01;100148.97;;;5.50;100.00
35519;BME280;21627;48.216;16.482;2023-04-27T05:22:31;100151.06;;;5.65;100.00
35519;BME280;21627;48.216;16.482;2023-04-27T05:24:58;100160.03;;;5.81;100.00
35519;BME280;21627;48.216;16.482;2023-04-27T05:27:26;100159.44;;;5.91;100.00
35519;BME280;21627;48.216;16.482;2023-04-27T05:29:53;100172.59;;;6.03;100.00
35519;BME280;21627;48.216;16.482;2023-04-27T05:32:20;100165.22;;;6.16;100.00
35519;BME280;21627;48.216;16.482;2023-04-27T05:34:47;100174.81;;;6.24;100.00
35519;BME280;21627;48.216;16.482;2023-04-27T05:37:15;100163.06;;;6.33;100.00
35519;BME280;21627;48.216;16.482;2023-04-27T05:39:42;100166.69;;;6.42;100.00
35519;BME280;21627;48.216;16.482;2023-04-27T05:42:09;100157.38;;;6.47;100.00
35519;BME280;21627;48.216;16.482;2023-04-27T05:44:37;100170.69;;;6.67;100.00
35519;BME280;21627;48.216;16.482;2023-04-27T05:47:04;100180.22;;;6.71;96.32
35519;BME280;21627;48.216;16.482;2023-04-27T05:49:31;100174.38;;;6.80;96.90
35519;BME280;21627;48.216;16.482;2023-04-27T05:51:58;100183.34;;;6.98;94.47
35519;BME280;21627;48.216;16.482;2023-04-27T05:54:26;100182.78;;;7.12;87.17
35519;BME280;21627;48.216;16.482;2023-04-27T05:56:53;100191.91;;;7.39;89.15
35519;BME280;21627;48.216;16.482;2023-04-27T05:59:20;100186.97;;;7.50;88.21
35519;BME280;21627;48.216;16.482;2023-04-27T06:01:47;100196.75;;;7.68;88.67
35519;BME280;21627;48.216;16.482;2023-04-27T06:04:15;100205.47;;;7.76;89.24
35519;BME280;21627;48.216;16.482;2023-04-27T06:06:42;100194.53;;;7.86;90.95
35519;BME280;21627;48.216;16.482;2023-04-27T06:09:10;100205.78;;;7.91;85.04
35519;BME280;21627;48.216;16.482;2023-04-27T06:11:38;100208.44;;;7.97;85.26
35519;BME280;21627;48.216;16.482;2023-04-27T06:14:05;100205.25;;;8.09;90.10
35519;BME280;21627;48.216;16.482;2023-04-27T06:16:32;100206.28;;;8.20;89.59
35519;BME280;21627;48.216;16.482;2023-04-27T06:18:59;100208.13;;;8.28;84.07
35519;BME280;21627;48.216;16.482;2023-04-27T06:21:26;100212.53;;;8.35;81.57
35519;BME280;21627;48.216;16.482;2023-04-27T06:23:54;100211.88;;;8.45;78.21
35519;BME280;21627;48.216;16.482;2023-04-27T06:26:21;100215.50;;;8.58;75.50
35519;BME280;21627;48.216;16.482;2023-04-27T06:28:48;100213.06;;;8.69;75.44
35519;BME280;21627;48.216;16.482;2023-04-27T06:31:15;100213.28;;;8.82;73.21
35519;BME280;21627;48.216;16.482;2023-04-27T06:33:43;100204.84;;;8.94;72.10
35519;BME280;21627;48.216;16.482;2023-04-27T06:36:10;100211.00;;;9.02;71.67
35519;BME280;21627;48.216;16.482;2023-04-27T06:38:37;100202.44;;;9.06;69.57
35519;BME280;21627;48.216;16.482;2023-04-27T06:41:04;100204.22;;;9.10;75.53
35519;BME280;21627;48.216;16.482;2023-04-27T06:43:32;100216.44;;;9.22;70.31
35519;BME280;21627;48.216;16.482;2023-04-27T06:45:59;100215.63;;;9.28;67.99
35519;BME280;21627;48.216;16.482;2023-04-27T06:48:26;100216.50;;;9.28;73.66
35519;BME280;21627;48.216;16.482;2023-04-27T06:50:53;100219.16;;;9.36;65.06
35519;BME280;21627;48.216;16.482;2023-04-27T06:53:20;100216.59;;;9.36;66.25
35519;BME280;21627;48.216;16.482;2023-04-27T06:55:48;100216.63;;;9.39;69.84
35519;BME280;21627;48.216;16.482;2023-04-27T06:58:16;100221.06;;;9.51;70.91
35519;BME280;21627;48.216;16.482;2023-04-27T07:00:44;100221.19;;;9.60;66.07
35519;BME280;21627;48.216;16.482;2023-04-27T07:03:11;100228.19;;;9.72;68.90
35519;BME280;21627;48.216;16.482;2023-04-27T07:05:38;100211.94;;;9.81;70.10
35519;BME280;21627;48.216;16.482;2023-04-27T07:08:06;100218.97;;;9.95;64.30
35519;BME280;21627;48.216;16.482;2023-04-27T07:10:35;100213.09;;;10.12;62.76
35519;BME280;21627;48.216;16.482;2023-04-27T07:13:02;100213.16;;;10.18;60.77
35519;BME280;21627;48.216;16.482;2023-04-27T07:15:32;100208.19;;;10.36;59.64
35519;BME280;21627;48.216;16.482;2023-04-27T07:17:59;100214.19;;;10.35;61.45
35519;BME280;21627;48.216;16.482;2023-04-27T07:20:26;100210.84;;;10.47;63.15
35519;BME280;21627;48.216;16.482;2023-04-27T07:22:53;100208.31;;;10.53;58.38
35519;BME280;21627;48.216;16.482;2023-04-27T07:25:21;100211.91;;;10.78;55.40
35519;BME280;21627;48.216;16.482;2023-04-27T07:27:48;100209.41;;;10.86;58.08
35519;BME280;21627;48.216;16.482;2023-04-27T07:30:15;100214.59;;;10.95;59.52
35519;BME280;21627;48.216;16.482;2023-04-27T07:32:43;100208.66;;;11.07;60.92
35519;BME280;21627;48.216;16.482;2023-04-27T07:35:11;100203.47;;;11.10;56.47
35519;BME280;21627;48.216;16.482;2023-04-27T07:37:39;100215.66;;;11.26;56.86
35519;BME280;21627;48.216;16.482;2023-04-27T07:40:08;100201.88;;;11.38;52.72
35519;BME280;21627;48.216;16.482;2023-04-27T07:42:42;100214.88;;;11.47;54.00
35519;BME280;21627;48.216;16.482;2023-04-27T07:45:11;100208.88;;;11.59;53.69
35519;BME280;21627;48.216;16.482;2023-04-27T07:47:38;100208.03;;;11.71;54.56
35519;BME280;21627;48.216;16.482;2023-04-27T07:50:06;100208.91;;;11.78;53.55
35519;BME280;21627;48.216;16.482;2023-04-27T07:52:34;100212.34;;;11.77;49.75
35519;BME280;21627;48.216;16.482;2023-04-27T07:55:02;100217.53;;;11.74;47.12
35519;BME280;21627;48.216;16.482;2023-04-27T07:57:31;100214.09;;;11.84;45.56
35519;BME280;21627;48.216;16.482;2023-04-27T07:59:58;100214.16;;;11.91;46.26
35519;BME280;21627;48.216;16.482;2023-04-27T08:02:26;100210.72;;;12.09;44.83
35519;BME280;21627;48.216;16.482;2023-04-27T08:04:57;100215.94;;;12.12;44.48
35519;BME280;21627;48.216;16.482;2023-04-27T08:07:25;100221.09;;;12.16;43.73
35519;BME280;21627;48.216;16.482;2023-04-27T08:09:53;100216.81;;;12.22;43.88
35519;BME280;21627;48.216;16.482;2023-04-27T08:12:21;100216.81;;;12.30;46.21
35519;BME280;21627;48.216;16.482;2023-04-27T08:14:48;100216.78;;;12.36;42.38
35519;BME280;21627;48.216;16.482;2023-04-27T08:17:15;100219.41;;;12.38;44.29
35519;BME280;21627;48.216;16.482;2023-04-27T08:19:44;100220.25;;;12.53;42.57
35519;BME280;21627;48.216;16.482;2023-04-27T08:22:11;100213.34;;;12.46;42.76
35519;BME280;21627;48.216;16.482;2023-04-27T08:24:38;100210.75;;;12.28;40.84
35519;BME280;21627;48.216;16.482;2023-04-27T08:27:06;100219.38;;;12.48;43.32
35519;BME280;21627;48.216;16.482;2023-04-27T08:29:33;100221.13;;;12.60;45.67
35519;BME280;21627;48.216;16.482;2023-04-27T08:32:02;100209.03;;;12.53;47.76
35519;BME280;21627;48.216;16.482;2023-04-27T08:34:30;100211.59;;;12.56;42.63
35519;BME280;21627;48.216;16.482;2023-04-27T08:36:57;100211.59;;;12.76;41.81
35519;BME280;21627;48.216;16.482;2023-04-27T08:39:25;100215.00;;;12.89;41.25
35519;BME280;21627;48.216;16.482;2023-04-27T08:41:52;100209.81;;;12.92;42.13
35519;BME280;21627;48.216;16.482;2023-04-27T08:44:19;100209.00;;;12.62;40.22
35519;BME280;21627;48.216;16.482;2023-04-27T08:46:46;100216.78;;;12.51;41.68
35519;BME280;21627;48.216;16.482;2023-04-27T08:49:14;100209.84;;;12.75;41.20
35519;BME280;21627;48.216;16.482;2023-04-27T08:51:43;100214.19;;;12.71;42.13
35519;BME280;21627;48.216;16.482;2023-04-27T08:54:10;100209.00;;;12.68;39.50
35519;BME280;21627;48.216;16.482;2023-04-27T08:56:38;100212.41;;;12.92;40.91
35519;BME280;21627;48.216;16.482;2023-04-27T08:59:13;100204.59;;;12.99;41.86
35519;BME280;21627;48.216;16.482;2023-04-27T09:01:46;100222.72;;;13.16;40.57
35519;BME280;21627;48.216;16.482;2023-04-27T09:04:15;100225.31;;;13.24;40.69
35519;BME280;21627;48.216;16.482;2023-04-27T09:06:44;100222.72;;;13.32;45.76
35519;BME280;21627;48.216;16.482;2023-04-27T09:09:22;100210.63;;;13.31;47.01
35519;BME280;21627;48.216;16.482;2023-04-27T09:11:49;100209.69;;;13.42;43.22
35519;BME280;21627;48.216;16.482;2023-04-27T09:14:20;100207.03;;;13.50;47.51
35519;BME280;21627;48.216;16.482;2023-04-27T09:16:54;100207.88;;;13.58;41.96
35519;BME280;21627;48.216;16.482;2023-04-27T09:19:28;100211.25;;;13.74;44.40
35519;BME280;21627;48.216;16.482;2023-04-27T09:22:07;100195.66;;;13.74;48.70
35519;BME280;21627;48.216;16.482;2023-04-27T09:24:35;100209.47;;;13.82;45.88
35519;BME280;21627;48.216;16.482;2023-04-27T09:27:03;100204.16;;;14.01;46.53
35519;BME280;21627;48.216;16.482;2023-04-27T09:29:36;100205.88;;;14.05;45.52
35519;BME280;21627;48.216;16.482;2023-04-27T09:32:17;100209.19;;;14.25;44.97
35519;BME280;21627;48.216;16.482;2023-04-27T09:34:45;100209.13;;;14.33;40.43
35519;BME280;21627;48.216;16.482;2023-04-27T09:37:12;100197.00;;;14.32;40.30
35519;BME280;21627;48.216;16.482;2023-04-27T09:39:41;100206.38;;;14.55;41.13
35519;BME280;21627;48.216;16.482;2023-04-27T09:42:09;100208.16;;;14.43;41.64
35519;BME280;21627;48.216;16.482;2023-04-27T09:44:37;100204.75;;;14.41;44.82
35519;BME280;21627;48.216;16.482;2023-04-27T09:47:05;100196.75;;;14.63;42.98
35519;BME280;21627;48.216;16.482;2023-04-27T09:49:33;100201.75;;;14.84;39.93
35519;BME280;21627;48.216;16.482;2023-04-27T09:52:01;100197.22;;;15.03;40.13
35519;BME280;21627;48.216;16.482;2023-04-27T09:54:30;100203.25;;;15.05;41.21
35519;BME280;21627;48.216;16.482;2023-04-27T09:57:29;100203.28;;;15.04;42.89
35519;BME280;21627;48.216;16.482;2023-04-27T10:09:22;100171.97;;;15.08;39.49
35519;BME280;21627;48.216;16.482;2023-04-27T10:11:52;100186.78;;;15.03;37.38
35519;BME280;21627;48.216;16.482;2023-04-27T10:14:23;100189.25;;;15.14;39.68
35519;BME280;21627;48.216;16.482;2023-04-27T10:16:57;100175.19;;;15.29;38.81
35519;BME280;21627;48.216;16.482;2023-04-27T10:19:25;100178.56;;;15.37;40.85
35519;BME280;21627;48.216;16.482;2023-04-27T10:22:00;100179.28;;;15.48;38.52
35519;BME280;21627;48.216;16.482;2023-04-27T10:24:39;100171.91;;;15.83;40.60
35519;BME280;21627;48.216;16.482;2023-04-27T10:27:08;100172.28;;;15.55;37.42
35519;BME280;21627;48.216;16.482;2023-04-27T10:29:42;100167.97;;;15.51;39.25
35519;BME280;21627;48.216;16.482;2023-04-27T10:34:40;100159.94;;;15.66;39.48
35519;BME280;21627;48.216;16.482;2023-04-27T10:37:11;100168.72;;;15.59;39.00
35519;BME280;21627;48.216;16.482;2023-04-27T10:39:41;100163.38;;;15.71;37.47
35519;BME280;21627;48.216;16.482;2023-04-27T10:42:24;100154.69;;;15.71;36.95
35519;BME280;21627;48.216;16.482;2023-04-27T10:44:56;100164.25;;;15.69;38.48
35519;BME280;21627;48.216;16.482;2023-04-27T10:47:24;100151.72;;;15.95;38.83
35519;BME280;21627;48.216;16.482;2023-04-27T10:50:04;100154.34;;;15.92;37.21
35519;BME280;21627;48.216;16.482;2023-04-27T10:52:31;100153.78;;;15.72;36.92
35519;BME280;21627;48.216;16.482;2023-04-27T10:55:12;100146.69;;;15.83;38.11
35519;BME280;21627;48.216;16.482;2023-04-27T10:57:51;100151.53;;;16.06;38.53
35519;BME280;21627;48.216;16.482;2023-04-27T11:00:32;100148.09;;;16.02;35.56
35519;BME280;21627;48.216;16.482;2023-04-27T11:03:19;100140.72;;;16.28;37.26
35519;BME280;21627;48.216;16.482;2023-04-27T11:05:49;100151.53;;;16.57;36.88
35519;BME280;21627;48.216;16.482;2023-04-27T11:08:24;100155.53;;;16.75;38.54
35519;BME280;21627;48.216;16.482;2023-04-27T11:10:52;100150.47;;;16.67;35.36
35519;BME280;21627;48.216;16.482;2023-04-27T11:13:24;100156.13;;;16.93;38.41
35519;BME280;21627;48.216;16.482;2023-04-27T11:15:58;100162.88;;;17.03;34.42
35519;BME280;21627;48.216;16.482;2023-04-27T11:18:29;100144.25;;;16.75;34.21
35519;BME280;21627;48.216;16.482;2023-04-27T11:23:39;100147.94;;;16.63;34.70
35519;BME280;21627;48.216;16.482;2023-04-27T11:26:19;100154.31;;;16.48;35.59
35519;BME280;21627;48.216;16.482;2023-04-27T11:29:02;100148.91;;;16.57;37.64
35519;BME280;21627;48.216;16.482;2023-04-27T11:31:43;100152.22;;;16.69;36.68
35519;BME280;21627;48.216;16.482;2023-04-27T11:34:23;100153.84;;;16.74;38.05
35519;BME280;21627;48.216;16.482;2023-04-27T11:37:03;100137.91;;;16.88;38.74
35519;BME280;21627;48.216;16.482;2023-04-27T11:39:38;100148.28;;;16.93;37.76
35519;BME280;21627;48.216;16.482;2023-04-27T11:42:20;100156.25;;;17.28;37.36
35519;BME280;21627;48.216;16.482;2023-04-27T11:44:56;100146.88;;;17.20;34.41
35519;BME280;21627;48.216;16.482;2023-04-27T11:47:25;100153.44;;;17.38;34.95
35519;BME280;21627;48.216;16.482;2023-04-27T11:50:03;100147.34;;;17.76;35.23
35519;BME280;21627;48.216;16.482;2023-04-27T11:52:38;100141.06;;;17.46;35.63
35519;BME280;21627;48.216;16.482;2023-04-27T11:55:06;100145.53;;;17.81;34.71
35519;BME280;21627;48.216;16.482;2023-04-27T11:57:37;100147.78;;;17.59;34.55
35519;BME280;21627;48.216;16.482;2023-04-27T12:00:06;100131.38;;;17.51;34.32
35519;BME280;21627;48.216;16.482;2023-04-27T12:02:37;100135.81;;;17.86;32.96
35519;BME280;21627;48.216;16.482;2023-04-27T12:05:05;100132.34;;;17.86;34.98
35519;BME280;21627;48.216;16.482;2023-04-27T12:07:34;100140.56;;;18.42;35.77
35519;BME280;21627;48.216;16.482;2023-04-27T12:10:01;100128.28;;;18.77;34.96
35519;BME280;21627;48.216;16.482;2023-04-27T12:12:31;100135.78;;;18.58;32.57
35519;BME280;21627;48.216;16.482;2023-04-27T12:14:59;100135.06;;;18.84;33.14
35519;BME280;21627;48.216;16.482;2023-04-27T12:17:26;100134.06;;;19.19;32.49
35519;BME280;21627;48.216;16.482;2023-04-27T12:19:54;100134.16;;;19.16;33.02
35519;BME280;21627;48.216;16.482;2023-04-27T12:22:21;100128.78;;;18.91;32.73
35519;BME280;21627;48.216;16.482;2023-04-27T12:24:49;100119.50;;;19.39;32.16
35519;BME280;21627;48.216;16.482;2023-04-27T12:27:16;100127.63;;;19.87;33.03
35519;BME280;21627;48.216;16.482;2023-04-27T12:29:43;100111.72;;;19.94;32.74
35519;BME280;21627;48.216;16.482;2023-04-27T12:32:11;100120.22;;;19.74;30.47
35519;BME280;21627;48.216;16.482;2023-04-27T12:34:38;100123.34;;;19.85;33.83
35519;BME280;21627;48.216;16.482;2023-04-27T12:37:05;100110.16;;;20.13;32.81
35519;BME280;21627;48.216;16.482;2023-04-27T12:39:33;100110.16;;;20.13;31.17
35519;BME280;21627;48.216;16.482;2023-04-27T12:42:00;100114.78;;;20.58;31.41
35519;BME280;21627;48.216;16.482;2023-04-27T12:44:28;100113.84;;;20.34;30.77
35519;BME280;21627;48.216;16.482;2023-04-27T12:46:55;100108.19;;;20.71;29.82
35519;BME280;21627;48.216;16.482;2023-04-27T12:49:22;100103.91;;;20.92;28.90
35519;BME280;21627;48.216;16.482;2023-04-27T12:51:51;100101.00;;;20.77;29.23
35519;BME280;21627;48.216;16.482;2023-04-27T12:54:18;100100.28;;;21.18;29.27
35519;BME280;21627;48.216;16.482;2023-04-27T12:56:46;100095.66;;;21.49;27.79
35519;BME280;21627;48.216;16.482;2023-04-27T12:59:13;100086.00;;;21.26;26.76
35519;BME280;21627;48.216;16.482;2023-04-27T13:01:41;100087.16;;;21.42;32.55